PWSweather.com
Personal Weather Stations
Station Observations
KC4KQE
Superstition Mountains, Apache Junction, AZ 85119

Superstition MountainsApache Junction, AZ 85119

Lat: 33.41578, Lon: -111.49328

Elevation: 1850

Station Type: Davis Vantage Pro2 Plus

http://kc4kqe.org/

Latest ConditionsUpdated 3:35:05 PM MST Saturday, Jul 21, 2018
Currently Today's Max Today's Min Today's Average
Temperature 99.6°F37.6°C 99.6°F37.6°C 78.7°F25.9°C 88.8°F31.6°C
Dew Point 62.5°F16.9°C 72.2°F22.3°C 59.8°F15.4°C 65.1°F18.4°C
Winds 13.0 mph 20.9 kmh 13.0 mph -20.9 kmh - - 3.5 mph 5.6 kmh
Wind Gusts 16.0 mph25.7 kmh 22.0 mph35.4 kmh - -
Humidity 30% 79% 30% 48%
Pressure 29.92 in1013.2 mb 30.03 in1016.9 mb 29.87 in1011.5 mb -
Precipitation - 0.07 in1.8 mm - -
Hour Temp Dew Point Humidity Winds Wind Gusts Pressure Precip Precip Rate Daily Precip Total
03:35 PM 99.6°F37.6°C 62.5°F16.9°C 30% 13.0 mph 20.9 kmh 16.0 mph25.7 kmh 29.92 in1013.2 mb 0.00 in0.0 mm 0.00 in0.0 mm 0.07 in1.8 mm
03:30 PM 99.6°F37.6°C 62.5°F16.9°C 30% 13.0 mph WSW20.9 kmh WSW 14.0 mph22.5 kmh 29.92 in1013.2 mb 0.00 in0.0 mm 0.00 in0.0 mm 0.07 in1.8 mm
03:25 PM 99.4°F37.4°C 62.4°F16.9°C 30% 6.0 mph WSW9.7 kmh WSW 11.0 mph17.7 kmh 29.92 in1013.2 mb 0.00 in0.0 mm 0.00 in0.0 mm 0.07 in1.8 mm
03:20 PM 98.3°F36.8°C 62.4°F16.9°C 31% 10.0 mph SW16.1 kmh SW 13.0 mph20.9 kmh 29.92 in1013.2 mb 0.00 in0.0 mm 0.00 in0.0 mm 0.07 in1.8 mm
03:15 PM 99.2°F37.3°C 63.1°F17.3°C 31% 6.0 mph W9.7 kmh W 9.0 mph14.5 kmh 29.92 in1013.2 mb 0.00 in0.0 mm 0.00 in0.0 mm 0.07 in1.8 mm
03:10 PM 98.9°F37.2°C 62.9°F17.2°C 31% 5.0 mph W8.0 kmh W 14.0 mph22.5 kmh 29.92 in1013.2 mb 0.00 in0.0 mm 0.00 in0.0 mm 0.07 in1.8 mm
03:05 PM 99.2°F37.3°C 63.1°F17.3°C 31% 9.0 mph 14.5 kmh 12.0 mph19.3 kmh 29.92 in1013.2 mb 0.00 in0.0 mm 0.00 in0.0 mm 0.07 in1.8 mm
03:00 PM 98.7°F37.1°C 62.7°F17.1°C 31% 3.0 mph WNW4.8 kmh WNW 11.0 mph17.7 kmh 29.92 in1013.2 mb 0.00 in0.0 mm 0.00 in0.0 mm 0.07 in1.8 mm
02:55 PM 98.3°F36.8°C 63.3°F17.4°C 32% 2.0 mph NNW3.2 kmh NNW 11.0 mph17.7 kmh 29.93 in1013.5 mb 0.00 in0.0 mm 0.00 in0.0 mm 0.07 in1.8 mm
02:50 PM 99.1°F37.3°C 63.0°F17.2°C 31% 7.0 mph WNW11.3 kmh WNW 8.0 mph12.9 kmh 29.93 in1013.5 mb 0.00 in0.0 mm 0.00 in0.0 mm 0.07 in1.8 mm
02:45 PM 98.6°F37.0°C 63.5°F17.5°C 32% 3.0 mph NW4.8 kmh NW 14.0 mph22.5 kmh 29.93 in1013.5 mb 0.00 in0.0 mm 0.00 in0.0 mm 0.07 in1.8 mm
02:40 PM 98.8°F37.1°C 63.7°F17.6°C 32% 5.0 mph WSW8.0 kmh WSW 10.0 mph16.1 kmh 29.93 in1013.5 mb 0.00 in0.0 mm 0.00 in0.0 mm 0.07 in1.8 mm
02:35 PM 98.2°F36.8°C 63.2°F17.3°C 32% 6.0 mph N9.7 kmh N 9.0 mph14.5 kmh 29.93 in1013.5 mb 0.00 in0.0 mm 0.00 in0.0 mm 0.07 in1.8 mm
02:30 PM 97.4°F36.3°C 64.2°F17.9°C 34% 10.0 mph WSW16.1 kmh WSW 11.0 mph17.7 kmh 29.94 in1013.9 mb 0.00 in0.0 mm 0.00 in0.0 mm 0.07 in1.8 mm
02:25 PM 97.0°F36.1°C 63.9°F17.7°C 34% 3.0 mph NW4.8 kmh NW 10.0 mph16.1 kmh 29.94 in1013.9 mb 0.00 in0.0 mm 0.00 in0.0 mm 0.07 in1.8 mm
02:20 PM 97.2°F36.2°C 63.2°F17.3°C 33% 6.0 mph W9.7 kmh W 13.0 mph20.9 kmh 29.94 in1013.9 mb 0.00 in0.0 mm 0.00 in0.0 mm 0.07 in1.8 mm
02:15 PM 97.1°F36.2°C 64.0°F17.8°C 34% 10.0 mph 16.1 kmh 12.0 mph19.3 kmh 29.94 in1013.9 mb 0.00 in0.0 mm 0.00 in0.0 mm 0.07 in1.8 mm
02:10 PM 97.4°F36.3°C 64.2°F17.9°C 34% 10.0 mph W16.1 kmh W 14.0 mph22.5 kmh 29.94 in1013.9 mb 0.00 in0.0 mm 0.00 in0.0 mm 0.07 in1.8 mm
02:05 PM 96.6°F35.9°C 64.3°F17.9°C 35% 7.0 mph SW11.3 kmh SW 16.0 mph25.7 kmh 29.94 in1013.9 mb 0.00 in0.0 mm 0.00 in0.0 mm 0.07 in1.8 mm
02:00 PM 96.4°F35.8°C 63.3°F17.4°C 34% 8.0 mph WSW12.9 kmh WSW 22.0 mph35.4 kmh 29.94 in1013.9 mb 0.00 in0.0 mm 0.00 in0.0 mm 0.07 in1.8 mm
01:55 PM 97.3°F36.3°C 64.1°F17.8°C 34% 11.0 mph SW17.7 kmh SW 22.0 mph35.4 kmh 29.95 in1014.2 mb 0.00 in0.0 mm 0.00 in0.0 mm 0.07 in1.8 mm
01:50 PM 96.8°F36.0°C 63.7°F17.6°C 34% 7.0 mph WSW11.3 kmh WSW 13.0 mph20.9 kmh 29.95 in1014.2 mb 0.00 in0.0 mm 0.00 in0.0 mm 0.07 in1.8 mm
01:45 PM 96.6°F35.9°C 63.5°F17.5°C 34% 7.0 mph WNW11.3 kmh WNW 14.0 mph22.5 kmh 29.95 in1014.2 mb 0.00 in0.0 mm 0.00 in0.0 mm 0.07 in1.8 mm
01:40 PM 96.4°F35.8°C 62.5°F16.9°C 33% 9.0 mph WSW14.5 kmh WSW 17.0 mph27.4 kmh 29.95 in1014.2 mb 0.00 in0.0 mm 0.00 in0.0 mm 0.07 in1.8 mm
01:35 PM 96.9°F36.1°C 62.9°F17.2°C 33% 6.0 mph W9.7 kmh W 18.0 mph29.0 kmh 29.95 in1014.2 mb 0.00 in0.0 mm 0.00 in0.0 mm 0.07 in1.8 mm
01:30 PM 96.9°F36.1°C 62.9°F17.2°C 33% 7.0 mph WSW11.3 kmh WSW 13.0 mph20.9 kmh 29.96 in1014.6 mb 0.00 in0.0 mm 0.00 in0.0 mm 0.07 in1.8 mm
01:25 PM 97.0°F36.1°C 63.0°F17.2°C 33% 6.0 mph WSW9.7 kmh WSW 11.0 mph17.7 kmh 29.96 in1014.6 mb 0.00 in0.0 mm 0.00 in0.0 mm 0.07 in1.8 mm
01:20 PM 96.6°F35.9°C 62.7°F17.1°C 33% 10.0 mph W16.1 kmh W 14.0 mph22.5 kmh 29.96 in1014.6 mb 0.00 in0.0 mm 0.00 in0.0 mm 0.07 in1.8 mm
01:15 PM 95.7°F35.4°C 62.7°F17.1°C 34% 4.0 mph NNW6.4 kmh NNW 12.0 mph19.3 kmh 29.96 in1014.6 mb 0.00 in0.0 mm 0.00 in0.0 mm 0.07 in1.8 mm
01:10 PM 95.5°F35.3°C 62.6°F17.0°C 34% 4.0 mph NW6.4 kmh NW 15.0 mph24.1 kmh 29.96 in1014.6 mb 0.00 in0.0 mm 0.00 in0.0 mm 0.07 in1.8 mm
01:05 PM 95.1°F35.1°C 63.0°F17.2°C 35% 3.0 mph NW4.8 kmh NW 10.0 mph16.1 kmh 29.97 in1014.9 mb 0.00 in0.0 mm 0.00 in0.0 mm 0.07 in1.8 mm
01:00 PM 95.5°F35.3°C 63.4°F17.4°C 35% 7.0 mph WSW11.3 kmh WSW 13.0 mph20.9 kmh 29.97 in1014.9 mb 0.00 in0.0 mm 0.00 in0.0 mm 0.07 in1.8 mm
12:55 PM 94.7°F34.8°C 62.7°F17.1°C 35% 8.0 mph W12.9 kmh W 13.0 mph20.9 kmh 29.97 in1014.9 mb 0.00 in0.0 mm 0.00 in0.0 mm 0.07 in1.8 mm
12:50 PM 94.8°F34.9°C 62.8°F17.1°C 35% 2.0 mph NNW3.2 kmh NNW 12.0 mph19.3 kmh 29.97 in1014.9 mb 0.00 in0.0 mm 0.00 in0.0 mm 0.07 in1.8 mm
12:45 PM 95.0°F35.0°C 62.9°F17.2°C 35% 10.0 mph W16.1 kmh W 15.0 mph24.1 kmh 29.97 in1014.9 mb 0.00 in0.0 mm 0.00 in0.0 mm 0.07 in1.8 mm
12:40 PM 95.1°F35.1°C 63.0°F17.2°C 35% 9.0 mph 14.5 kmh 14.0 mph22.5 kmh 29.97 in1014.9 mb 0.00 in0.0 mm 0.00 in0.0 mm 0.07 in1.8 mm
12:35 PM 94.1°F34.5°C 63.7°F17.6°C 37% 5.0 mph WNW8.0 kmh WNW 14.0 mph22.5 kmh 29.97 in1014.9 mb 0.00 in0.0 mm 0.00 in0.0 mm 0.07 in1.8 mm
12:30 PM 94.6°F34.8°C 62.6°F17.0°C 35% 5.0 mph WNW8.0 kmh WNW 15.0 mph24.1 kmh 29.98 in1015.2 mb 0.00 in0.0 mm 0.00 in0.0 mm 0.07 in1.8 mm
12:25 PM 94.8°F34.9°C 62.8°F17.1°C 35% 9.0 mph WSW14.5 kmh WSW 13.0 mph20.9 kmh 29.98 in1015.2 mb 0.00 in0.0 mm 0.00 in0.0 mm 0.07 in1.8 mm
12:20 PM 93.1°F33.9°C 62.9°F17.2°C 37% 6.0 mph W9.7 kmh W 16.0 mph25.7 kmh 29.98 in1015.2 mb 0.00 in0.0 mm 0.00 in0.0 mm 0.07 in1.8 mm
12:15 PM 93.5°F34.2°C 63.2°F17.3°C 37% 7.0 mph WSW11.3 kmh WSW 14.0 mph22.5 kmh 29.98 in1015.2 mb 0.00 in0.0 mm 0.00 in0.0 mm 0.07 in1.8 mm
12:10 PM 93.3°F34.1°C 63.0°F17.2°C 37% 5.0 mph NW8.0 kmh NW 10.0 mph16.1 kmh 29.99 in1015.6 mb 0.00 in0.0 mm 0.00 in0.0 mm 0.07 in1.8 mm
12:05 PM 93.8°F34.3°C 62.7°F17.1°C 36% 8.0 mph W12.9 kmh W 10.0 mph16.1 kmh 29.99 in1015.6 mb 0.00 in0.0 mm 0.00 in0.0 mm 0.07 in1.8 mm
12:00 PM 93.1°F33.9°C 62.1°F16.7°C 36% 2.0 mph SW3.2 kmh SW 10.0 mph16.1 kmh 29.99 in1015.6 mb 0.00 in0.0 mm 0.00 in0.0 mm 0.07 in1.8 mm
11:55 AM 93.6°F34.2°C 63.3°F17.4°C 37% 6.0 mph W9.7 kmh W 11.0 mph17.7 kmh 29.99 in1015.6 mb 0.00 in0.0 mm 0.00 in0.0 mm 0.07 in1.8 mm
11:50 AM 93.7°F34.3°C 63.4°F17.4°C 37% 7.0 mph WNW11.3 kmh WNW 13.0 mph20.9 kmh 29.99 in1015.6 mb 0.00 in0.0 mm 0.00 in0.0 mm 0.07 in1.8 mm
11:45 AM 93.1°F33.9°C 64.4°F18.0°C 39% 5.0 mph WNW8.0 kmh WNW 11.0 mph17.7 kmh 29.99 in1015.6 mb 0.00 in0.0 mm 0.00 in0.0 mm 0.07 in1.8 mm
11:40 AM 92.0°F33.3°C 65.5°F18.6°C 42% 6.0 mph W9.7 kmh W 11.0 mph17.7 kmh 29.99 in1015.6 mb 0.00 in0.0 mm 0.00 in0.0 mm 0.07 in1.8 mm
11:35 AM 90.5°F32.5°C 66.8°F19.3°C 46% Calm Calm 6.0 mph9.7 kmh 29.99 in1015.6 mb 0.00 in0.0 mm 0.00 in0.0 mm 0.07 in1.8 mm
11:30 AM 89.8°F32.1°C 67.4°F19.7°C 48% 5.0 mph N8.0 kmh N 5.0 mph8.0 kmh 29.99 in1015.6 mb 0.00 in0.0 mm 0.00 in0.0 mm 0.07 in1.8 mm
11:25 AM 89.2°F31.8°C 66.2°F19.0°C 47% 1.0 mph E1.6 kmh E 6.0 mph9.7 kmh 30.00 in1015.9 mb 0.00 in0.0 mm 0.00 in0.0 mm 0.07 in1.8 mm
11:20 AM 90.2°F32.3°C 66.5°F19.2°C 46% 7.0 mph SW11.3 kmh SW 10.0 mph16.1 kmh 30.00 in1015.9 mb 0.00 in0.0 mm 0.00 in0.0 mm 0.07 in1.8 mm
11:15 AM 89.6°F32.0°C 67.8°F19.9°C 49% 4.0 mph WSW6.4 kmh WSW 6.0 mph9.7 kmh 30.00 in1015.9 mb 0.00 in0.0 mm 0.00 in0.0 mm 0.07 in1.8 mm
11:10 AM 89.3°F31.8°C 66.3°F19.1°C 47% 2.0 mph W3.2 kmh W 5.0 mph8.0 kmh 30.00 in1015.9 mb 0.00 in0.0 mm 0.00 in0.0 mm 0.07 in1.8 mm
11:05 AM 89.7°F32.1°C 67.9°F19.9°C 49% 1.0 mph NW1.6 kmh NW 5.0 mph8.0 kmh 30.01 in1016.3 mb 0.00 in0.0 mm 0.00 in0.0 mm 0.07 in1.8 mm
11:00 AM 89.0°F31.7°C 67.3°F19.6°C 49% 3.0 mph NE4.8 kmh NE 7.0 mph11.3 kmh 30.01 in1016.3 mb 0.00 in0.0 mm 0.00 in0.0 mm 0.07 in1.8 mm
10:55 AM 89.0°F31.7°C 67.3°F19.6°C 49% 5.0 mph W8.0 kmh W 7.0 mph11.3 kmh 30.01 in1016.3 mb 0.00 in0.0 mm 0.00 in0.0 mm 0.07 in1.8 mm
10:50 AM 88.3°F31.3°C 66.6°F19.2°C 49% 3.0 mph NE4.8 kmh NE 6.0 mph9.7 kmh 30.01 in1016.3 mb 0.00 in0.0 mm 0.00 in0.0 mm 0.07 in1.8 mm
10:45 AM 87.9°F31.1°C 67.4°F19.7°C 51% 5.0 mph W8.0 kmh W 8.0 mph12.9 kmh 30.01 in1016.3 mb 0.00 in0.0 mm 0.00 in0.0 mm 0.07 in1.8 mm
10:40 AM 88.0°F31.1°C 67.5°F19.7°C 51% 4.0 mph NNW6.4 kmh NNW 8.0 mph12.9 kmh 30.01 in1016.3 mb 0.00 in0.0 mm 0.00 in0.0 mm 0.07 in1.8 mm
10:35 AM 87.2°F30.7°C 67.9°F19.9°C 53% 1.0 mph SW1.6 kmh SW -- 30.01 in1016.3 mb 0.00 in0.0 mm 0.00 in0.0 mm 0.07 in1.8 mm
10:30 AM 87.2°F30.7°C 67.9°F19.9°C 53% 1.0 mph SW1.6 kmh SW 5.0 mph8.0 kmh 30.01 in1016.3 mb 0.00 in0.0 mm 0.00 in0.0 mm 0.07 in1.8 mm
10:25 AM 87.6°F30.9°C 67.1°F19.5°C 51% 2.0 mph SW3.2 kmh SW 8.0 mph12.9 kmh 30.02 in1016.6 mb 0.00 in0.0 mm 0.00 in0.0 mm 0.07 in1.8 mm
10:20 AM 87.2°F30.7°C 68.4°F20.2°C 54% 5.0 mph WSW8.0 kmh WSW 5.0 mph8.0 kmh 30.02 in1016.6 mb 0.00 in0.0 mm 0.00 in0.0 mm 0.07 in1.8 mm
10:15 AM 87.1°F30.6°C 67.8°F19.9°C 53% 1.0 mph NNW1.6 kmh NNW 9.0 mph14.5 kmh 30.02 in1016.6 mb 0.00 in0.0 mm 0.00 in0.0 mm 0.07 in1.8 mm
10:10 AM 85.9°F29.9°C 67.8°F19.9°C 55% 8.0 mph WSW12.9 kmh WSW 9.0 mph14.5 kmh 30.02 in1016.6 mb 0.00 in0.0 mm 0.00 in0.0 mm 0.07 in1.8 mm
10:05 AM 85.2°F29.6°C 67.1°F19.5°C 55% 1.0 mph NW1.6 kmh NW 3.0 mph4.8 kmh 30.02 in1016.6 mb 0.00 in0.0 mm 0.00 in0.0 mm 0.07 in1.8 mm
10:00 AM 85.3°F29.6°C 68.3°F20.2°C 57% 1.0 mph SW1.6 kmh SW 5.0 mph8.0 kmh 30.02 in1016.6 mb 0.00 in0.0 mm 0.00 in0.0 mm 0.07 in1.8 mm
09:55 AM 84.5°F29.2°C 67.0°F19.4°C 56% 4.0 mph WSW6.4 kmh WSW 7.0 mph11.3 kmh 30.02 in1016.6 mb 0.00 in0.0 mm 0.00 in0.0 mm 0.07 in1.8 mm
09:50 AM 84.3°F29.1°C 66.8°F19.3°C 56% 1.0 mph SW1.6 kmh SW 4.0 mph6.4 kmh 30.02 in1016.6 mb 0.00 in0.0 mm 0.00 in0.0 mm 0.07 in1.8 mm
09:45 AM 83.7°F28.7°C 66.8°F19.3°C 57% 2.0 mph SW3.2 kmh SW 4.0 mph6.4 kmh 30.02 in1016.6 mb 0.00 in0.0 mm 0.00 in0.0 mm 0.07 in1.8 mm
09:40 AM 83.0°F28.3°C 66.6°F19.2°C 58% Calm Calm 4.0 mph6.4 kmh 30.02 in1016.6 mb 0.00 in0.0 mm 0.00 in0.0 mm 0.07 in1.8 mm
09:35 AM 82.5°F28.1°C 66.6°F19.2°C 59% 1.0 mph SW1.6 kmh SW 3.0 mph4.8 kmh 30.02 in1016.6 mb 0.00 in0.0 mm 0.00 in0.0 mm 0.07 in1.8 mm
09:30 AM 82.6°F28.1°C 66.7°F19.3°C 59% 2.0 mph SW3.2 kmh SW 5.0 mph8.0 kmh 30.02 in1016.6 mb 0.00 in0.0 mm 0.00 in0.0 mm 0.07 in1.8 mm
09:25 AM 82.3°F27.9°C 66.9°F19.4°C 60% 3.0 mph WSW4.8 kmh WSW 5.0 mph8.0 kmh 30.02 in1016.6 mb 0.00 in0.0 mm 0.00 in0.0 mm 0.07 in1.8 mm
09:20 AM 81.6°F27.6°C 66.3°F19.1°C 60% 2.0 mph S3.2 kmh S 5.0 mph8.0 kmh 30.02 in1016.6 mb 0.00 in0.0 mm 0.00 in0.0 mm 0.07 in1.8 mm
09:15 AM 81.5°F27.5°C 65.7°F18.7°C 59% 2.0 mph S3.2 kmh S 5.0 mph8.0 kmh 30.02 in1016.6 mb 0.00 in0.0 mm 0.00 in0.0 mm 0.07 in1.8 mm
09:10 AM 81.7°F27.6°C 66.4°F19.1°C 60% 2.0 mph SW3.2 kmh SW 6.0 mph9.7 kmh 30.03 in1016.9 mb 0.00 in0.0 mm 0.00 in0.0 mm 0.07 in1.8 mm
09:05 AM 81.8°F27.7°C 66.5°F19.2°C 60% 5.0 mph SW8.0 kmh SW 7.0 mph11.3 kmh 30.03 in1016.9 mb 0.00 in0.0 mm 0.00 in0.0 mm 0.07 in1.8 mm
09:00 AM 81.9°F27.7°C 66.6°F19.2°C 60% 5.0 mph SSW8.0 kmh SSW 7.0 mph11.3 kmh 30.03 in1016.9 mb 0.00 in0.0 mm 0.00 in0.0 mm 0.07 in1.8 mm
08:55 AM 81.8°F27.7°C 66.5°F19.2°C 60% 6.0 mph S9.7 kmh S 7.0 mph11.3 kmh 30.02 in1016.6 mb 0.00 in0.0 mm 0.00 in0.0 mm 0.07 in1.8 mm
08:50 AM 82.0°F27.8°C 67.1°F19.5°C 61% 5.0 mph SW8.0 kmh SW 8.0 mph12.9 kmh 30.02 in1016.6 mb 0.00 in0.0 mm 0.00 in0.0 mm 0.07 in1.8 mm
08:45 AM 81.9°F27.7°C 67.1°F19.5°C 61% 2.0 mph SSW3.2 kmh SSW 10.0 mph16.1 kmh 30.02 in1016.6 mb 0.00 in0.0 mm 0.00 in0.0 mm 0.07 in1.8 mm
08:40 AM 82.3°F27.9°C 67.4°F19.7°C 61% 6.0 mph S9.7 kmh S 8.0 mph12.9 kmh 30.02 in1016.6 mb 0.00 in0.0 mm 0.00 in0.0 mm 0.07 in1.8 mm
08:35 AM 82.4°F28.0°C 67.5°F19.7°C 61% 4.0 mph SSW6.4 kmh SSW 8.0 mph12.9 kmh 30.02 in1016.6 mb 0.00 in0.0 mm 0.00 in0.0 mm 0.07 in1.8 mm
08:30 AM 83.0°F28.3°C 68.1°F20.1°C 61% 5.0 mph S8.0 kmh S 7.0 mph11.3 kmh 30.02 in1016.6 mb 0.00 in0.0 mm 0.00 in0.0 mm 0.07 in1.8 mm
08:25 AM 83.1°F28.4°C 68.2°F20.1°C 61% 5.0 mph SSW8.0 kmh SSW 11.0 mph17.7 kmh 30.02 in1016.6 mb 0.00 in0.0 mm 0.00 in0.0 mm 0.07 in1.8 mm
08:20 AM 83.7°F28.7°C 68.7°F20.4°C 61% 5.0 mph S8.0 kmh S 6.0 mph9.7 kmh 30.02 in1016.6 mb 0.00 in0.0 mm 0.00 in0.0 mm 0.07 in1.8 mm
08:15 AM 83.6°F28.7°C 67.7°F19.8°C 59% 3.0 mph S4.8 kmh S 7.0 mph11.3 kmh 30.02 in1016.6 mb 0.00 in0.0 mm 0.00 in0.0 mm 0.07 in1.8 mm
08:10 AM 83.2°F28.4°C 68.3°F20.2°C 61% 2.0 mph SE3.2 kmh SE 6.0 mph9.7 kmh 30.01 in1016.3 mb 0.00 in0.0 mm 0.00 in0.0 mm 0.07 in1.8 mm
08:05 AM 83.1°F28.4°C 68.2°F20.1°C 61% 3.0 mph SE4.8 kmh SE 4.0 mph6.4 kmh 30.01 in1016.3 mb 0.00 in0.0 mm 0.00 in0.0 mm 0.07 in1.8 mm
08:00 AM 82.5°F28.1°C 69.0°F20.6°C 64% 4.0 mph SSE6.4 kmh SSE 4.0 mph6.4 kmh 30.01 in1016.3 mb 0.00 in0.0 mm 0.00 in0.0 mm 0.07 in1.8 mm
07:55 AM 82.2°F27.9°C 68.7°F20.4°C 64% 1.0 mph S1.6 kmh S 5.0 mph8.0 kmh 30.01 in1016.3 mb 0.00 in0.0 mm 0.00 in0.0 mm 0.07 in1.8 mm
07:50 AM 81.8°F27.7°C 69.3°F20.7°C 66% 2.0 mph S3.2 kmh S 3.0 mph4.8 kmh 30.01 in1016.3 mb 0.00 in0.0 mm 0.00 in0.0 mm 0.07 in1.8 mm
07:45 AM 81.2°F27.3°C 68.7°F20.4°C 66% Calm Calm 3.0 mph4.8 kmh 30.01 in1016.3 mb 0.00 in0.0 mm 0.00 in0.0 mm 0.07 in1.8 mm
07:40 AM 81.1°F27.3°C 69.0°F20.6°C 67% 1.0 mph S1.6 kmh S 5.0 mph8.0 kmh 30.01 in1016.3 mb 0.00 in0.0 mm 0.00 in0.0 mm 0.07 in1.8 mm
07:35 AM 80.9°F27.2°C 68.4°F20.2°C 66% Calm Calm 5.0 mph8.0 kmh 30.01 in1016.3 mb 0.00 in0.0 mm 0.00 in0.0 mm 0.07 in1.8 mm
07:30 AM 80.8°F27.1°C 69.2°F20.7°C 68% 1.0 mph SSE1.6 kmh SSE 5.0 mph8.0 kmh 30.00 in1015.9 mb 0.00 in0.0 mm 0.00 in0.0 mm 0.07 in1.8 mm
07:25 AM 80.6°F27.0°C 68.6°F20.3°C 67% 4.0 mph S6.4 kmh S 5.0 mph8.0 kmh 30.00 in1015.9 mb 0.00 in0.0 mm 0.00 in0.0 mm 0.07 in1.8 mm
07:20 AM 80.5°F26.9°C 68.9°F20.5°C 68% Calm Calm 4.0 mph6.4 kmh 29.99 in1015.6 mb 0.00 in0.0 mm 0.00 in0.0 mm 0.07 in1.8 mm
07:15 AM 80.3°F26.8°C 69.1°F20.6°C 69% 4.0 mph SE6.4 kmh SE 5.0 mph8.0 kmh 29.99 in1015.6 mb 0.00 in0.0 mm 0.00 in0.0 mm 0.07 in1.8 mm
07:10 AM 80.3°F26.8°C 68.7°F20.4°C 68% 2.0 mph SSE3.2 kmh SSE 6.0 mph9.7 kmh 29.99 in1015.6 mb 0.00 in0.0 mm 0.00 in0.0 mm 0.07 in1.8 mm
07:05 AM 80.8°F27.1°C 68.3°F20.2°C 66% 3.0 mph S4.8 kmh S 8.0 mph12.9 kmh 29.99 in1015.6 mb 0.00 in0.0 mm 0.00 in0.0 mm 0.07 in1.8 mm
07:00 AM 81.2°F27.3°C 68.2°F20.1°C 65% 3.0 mph SSW4.8 kmh SSW 3.0 mph4.8 kmh 29.98 in1015.2 mb 0.00 in0.0 mm 0.00 in0.0 mm 0.07 in1.8 mm
06:55 AM 81.2°F27.3°C 67.8°F19.9°C 64% Calm Calm 1.0 mph1.6 kmh 29.98 in1015.2 mb 0.00 in0.0 mm 0.00 in0.0 mm 0.07 in1.8 mm
06:50 AM 81.2°F27.3°C 67.8°F19.9°C 64% Calm Calm 3.0 mph4.8 kmh 29.98 in1015.2 mb 0.00 in0.0 mm 0.00 in0.0 mm 0.07 in1.8 mm
06:45 AM 81.3°F27.4°C 67.4°F19.7°C 63% 3.0 mph SSW4.8 kmh SSW 4.0 mph6.4 kmh 29.98 in1015.2 mb 0.00 in0.0 mm 0.00 in0.0 mm 0.07 in1.8 mm
06:40 AM 81.4°F27.4°C 67.5°F19.7°C 63% 3.0 mph SW4.8 kmh SW 3.0 mph4.8 kmh 29.98 in1015.2 mb 0.00 in0.0 mm 0.00 in0.0 mm 0.07 in1.8 mm
06:35 AM 81.5°F27.5°C 67.6°F19.8°C 63% Calm Calm 3.0 mph4.8 kmh 29.98 in1015.2 mb 0.00 in0.0 mm 0.00 in0.0 mm 0.07 in1.8 mm
06:30 AM 81.8°F27.7°C 67.9°F19.9°C 63% 2.0 mph SSW3.2 kmh SSW 4.0 mph6.4 kmh 29.99 in1015.6 mb 0.00 in0.0 mm 0.00 in0.0 mm 0.07 in1.8 mm
06:25 AM 81.9°F27.7°C 68.0°F20.0°C 63% 3.0 mph S4.8 kmh S 7.0 mph11.3 kmh 29.99 in1015.6 mb 0.00 in0.0 mm 0.00 in0.0 mm 0.07 in1.8 mm
06:20 AM 81.8°F27.7°C 67.9°F19.9°C 63% 2.0 mph SSW3.2 kmh SSW 5.0 mph8.0 kmh 29.98 in1015.2 mb 0.00 in0.0 mm 0.00 in0.0 mm 0.07 in1.8 mm
06:15 AM 81.4°F27.4°C 68.0°F20.0°C 64% Calm Calm 4.0 mph6.4 kmh 29.98 in1015.2 mb 0.00 in0.0 mm 0.00 in0.0 mm 0.07 in1.8 mm
06:10 AM 81.3°F27.4°C 69.7°F20.9°C 68% 4.0 mph SSW6.4 kmh SSW 4.0 mph6.4 kmh 29.98 in1015.2 mb 0.00 in0.0 mm 0.00 in0.0 mm 0.07 in1.8 mm
06:05 AM 81.3°F27.4°C 69.2°F20.7°C 67% 2.0 mph S3.2 kmh S 3.0 mph4.8 kmh 29.98 in1015.2 mb 0.00 in0.0 mm 0.00 in0.0 mm 0.07 in1.8 mm
06:00 AM 81.4°F27.4°C 68.9°F20.5°C 66% 2.0 mph S3.2 kmh S 5.0 mph8.0 kmh 29.98 in1015.2 mb 0.00 in0.0 mm 0.00 in0.0 mm 0.07 in1.8 mm
05:55 AM 81.5°F27.5°C 69.0°F20.6°C 66% Calm Calm -- 29.97 in1014.9 mb 0.00 in0.0 mm 0.00 in0.0 mm 0.07 in1.8 mm
05:50 AM 81.4°F27.4°C 68.9°F20.5°C 66% Calm Calm 3.0 mph4.8 kmh 29.97 in1014.9 mb 0.00 in0.0 mm 0.00 in0.0 mm 0.07 in1.8 mm
05:45 AM 81.3°F27.4°C 68.8°F20.4°C 66% 3.0 mph S4.8 kmh S 3.0 mph4.8 kmh 29.97 in1014.9 mb 0.00 in0.0 mm 0.00 in0.0 mm 0.07 in1.8 mm
05:40 AM 81.2°F27.3°C 69.1°F20.6°C 67% Calm Calm 4.0 mph6.4 kmh 29.96 in1014.6 mb 0.00 in0.0 mm 0.00 in0.0 mm 0.07 in1.8 mm
05:35 AM 81.2°F27.3°C 69.1°F20.6°C 67% 3.0 mph SE4.8 kmh SE 3.0 mph4.8 kmh 29.96 in1014.6 mb 0.00 in0.0 mm 0.00 in0.0 mm 0.07 in1.8 mm
05:30 AM 81.3°F27.4°C 69.7°F20.9°C 68% 3.0 mph SE4.8 kmh SE 5.0 mph8.0 kmh 29.96 in1014.6 mb 0.00 in0.0 mm 0.00 in0.0 mm 0.07 in1.8 mm
05:25 AM 81.4°F27.4°C 69.3°F20.7°C 67% 1.0 mph SSE1.6 kmh SSE 4.0 mph6.4 kmh 29.96 in1014.6 mb 0.00 in0.0 mm 0.00 in0.0 mm 0.07 in1.8 mm
05:20 AM 81.3°F27.4°C 69.7°F20.9°C 68% 4.0 mph SSE6.4 kmh SSE 4.0 mph6.4 kmh 29.96 in1014.6 mb 0.00 in0.0 mm 0.00 in0.0 mm 0.07 in1.8 mm
05:15 AM 81.2°F27.3°C 70.0°F21.1°C 69% 2.0 mph SSE3.2 kmh SSE 7.0 mph11.3 kmh 29.96 in1014.6 mb 0.00 in0.0 mm 0.00 in0.0 mm 0.07 in1.8 mm
05:10 AM 80.8°F27.1°C 70.4°F21.3°C 71% 3.0 mph SE4.8 kmh SE 7.0 mph11.3 kmh 29.95 in1014.2 mb 0.00 in0.0 mm 0.00 in0.0 mm 0.07 in1.8 mm
05:05 AM 81.0°F27.2°C 71.0°F21.7°C 72% 1.0 mph SE1.6 kmh SE 4.0 mph6.4 kmh 29.95 in1014.2 mb 0.01 in0.3 mm 0.00 in0.0 mm 0.07 in1.8 mm
05:00 AM 80.6°F27.0°C 70.7°F21.5°C 72% 1.0 mph SSE1.6 kmh SSE 3.0 mph4.8 kmh 29.95 in1014.2 mb 0.05 in1.3 mm 0.00 in0.0 mm 0.07 in1.8 mm
04:55 AM 80.3°F26.8°C 71.6°F22.0°C 75% 1.0 mph S1.6 kmh S 4.0 mph6.4 kmh 29.95 in1014.2 mb 0.07 in1.8 mm 0.00 in0.0 mm 0.07 in1.8 mm
04:50 AM 79.9°F26.6°C 70.8°F21.6°C 74% 3.0 mph S4.8 kmh S 6.0 mph9.7 kmh 29.95 in1014.2 mb 0.07 in1.8 mm 0.00 in0.0 mm 0.07 in1.8 mm
04:45 AM 79.4°F26.3°C 72.2°F22.3°C 79% 3.0 mph S4.8 kmh S 5.0 mph8.0 kmh 29.94 in1013.9 mb 0.07 in1.8 mm 0.00 in0.0 mm 0.07 in1.8 mm
04:40 AM 79.3°F26.3°C 71.0°F21.7°C 76% 3.0 mph S4.8 kmh S 5.0 mph8.0 kmh 29.94 in1013.9 mb 0.07 in1.8 mm 0.00 in0.0 mm 0.07 in1.8 mm
04:35 AM 78.8°F26.0°C 70.9°F21.6°C 77% 3.0 mph SW4.8 kmh SW 4.0 mph6.4 kmh 29.94 in1013.9 mb 0.07 in1.8 mm 0.00 in0.0 mm 0.07 in1.8 mm
04:30 AM 79.0°F26.1°C 71.5°F21.9°C 78% Calm Calm 5.0 mph8.0 kmh 29.94 in1013.9 mb 0.07 in1.8 mm 0.00 in0.0 mm 0.07 in1.8 mm
04:25 AM 79.2°F26.2°C 70.1°F21.2°C 74% 4.0 mph S6.4 kmh S 4.0 mph6.4 kmh 29.94 in1013.9 mb 0.07 in1.8 mm 0.00 in0.0 mm 0.07 in1.8 mm
04:20 AM 79.0°F26.1°C 69.5°F20.8°C 73% Calm Calm 5.0 mph8.0 kmh 29.93 in1013.5 mb 0.07 in1.8 mm 0.00 in0.0 mm 0.07 in1.8 mm
04:15 AM 78.7°F25.9°C 68.4°F20.2°C 71% 3.0 mph E4.8 kmh E 8.0 mph12.9 kmh 29.93 in1013.5 mb 0.07 in1.8 mm 0.00 in0.0 mm 0.07 in1.8 mm
04:10 AM 79.1°F26.2°C 68.4°F20.2°C 70% 3.0 mph E4.8 kmh E 6.0 mph9.7 kmh 29.93 in1013.5 mb 0.07 in1.8 mm 0.12 in3.0 mm 0.07 in1.8 mm
04:05 AM 81.6°F27.6°C 67.7°F19.8°C 63% 4.0 mph ESE6.4 kmh ESE 12.0 mph19.3 kmh 29.94 in1013.9 mb 0.06 in1.5 mm 0.48 in12.2 mm 0.06 in1.5 mm
04:00 AM 85.9°F29.9°C 67.8°F19.9°C 55% 11.0 mph SE17.7 kmh SE 21.0 mph33.8 kmh 29.94 in1013.9 mb 0.02 in0.5 mm 0.02 in0.5 mm 0.02 in0.5 mm
03:55 AM 90.1°F32.3°C 63.8°F17.7°C 42% 10.0 mph SE16.1 kmh SE 15.0 mph24.1 kmh 29.93 in1013.5 mb 0.00 in0.0 mm 0.00 in0.0 mm 0.00 in0.0 mm
03:50 AM 90.7°F32.6°C 60.8°F16.0°C 37% 11.0 mph SE17.7 kmh SE 15.0 mph24.1 kmh 29.93 in1013.5 mb 0.00 in0.0 mm 0.00 in0.0 mm 0.00 in0.0 mm
03:45 AM 91.0°F32.8°C 61.8°F16.6°C 38% 3.0 mph SE4.8 kmh SE 8.0 mph12.9 kmh 29.93 in1013.5 mb 0.00 in0.0 mm 0.00 in0.0 mm 0.00 in0.0 mm
03:40 AM 91.1°F32.8°C 62.6°F17.0°C 39% 2.0 mph SE3.2 kmh SE 9.0 mph14.5 kmh 29.92 in1013.2 mb 0.00 in0.0 mm 0.00 in0.0 mm 0.00 in0.0 mm
03:35 AM 91.2°F32.9°C 62.7°F17.1°C 39% 5.0 mph SE8.0 kmh SE 11.0 mph17.7 kmh 29.92 in1013.2 mb 0.00 in0.0 mm 0.00 in0.0 mm 0.00 in0.0 mm
03:30 AM 91.5°F33.1°C 63.0°F17.2°C 39% 8.0 mph E12.9 kmh E 11.0 mph17.7 kmh 29.91 in1012.9 mb 0.00 in0.0 mm 0.00 in0.0 mm 0.00 in0.0 mm
03:25 AM 91.6°F33.1°C 62.3°F16.8°C 38% 4.0 mph S6.4 kmh S 10.0 mph16.1 kmh 29.91 in1012.9 mb 0.00 in0.0 mm 0.00 in0.0 mm 0.00 in0.0 mm
03:20 AM 91.7°F33.2°C 61.6°F16.4°C 37% 5.0 mph SE8.0 kmh SE 10.0 mph16.1 kmh 29.91 in1012.9 mb 0.00 in0.0 mm 0.00 in0.0 mm 0.00 in0.0 mm
03:15 AM 91.8°F33.2°C 61.7°F16.5°C 37% 8.0 mph SE12.9 kmh SE 8.0 mph12.9 kmh 29.91 in1012.9 mb 0.00 in0.0 mm 0.00 in0.0 mm 0.00 in0.0 mm
03:10 AM 92.0°F33.3°C 61.9°F16.6°C 37% 4.0 mph SE6.4 kmh SE 7.0 mph11.3 kmh 29.91 in1012.9 mb 0.00 in0.0 mm 0.00 in0.0 mm 0.00 in0.0 mm
03:05 AM 92.2°F33.4°C 61.3°F16.3°C 36% 3.0 mph SE4.8 kmh SE 8.0 mph12.9 kmh 29.91 in1012.9 mb 0.00 in0.0 mm 0.00 in0.0 mm 0.00 in0.0 mm
03:00 AM 92.5°F33.6°C 61.6°F16.4°C 36% 1.0 mph SE1.6 kmh SE 7.0 mph11.3 kmh 29.90 in1012.5 mb 0.00 in0.0 mm 0.00 in0.0 mm 0.00 in0.0 mm
02:55 AM 92.8°F33.8°C 61.0°F16.1°C 35% 4.0 mph SE6.4 kmh SE 4.0 mph6.4 kmh 29.90 in1012.5 mb 0.00 in0.0 mm 0.00 in0.0 mm 0.00 in0.0 mm
02:50 AM 93.1°F33.9°C 60.5°F15.8°C 34% 1.0 mph NW1.6 kmh NW 2.0 mph3.2 kmh 29.90 in1012.5 mb 0.00 in0.0 mm 0.00 in0.0 mm 0.00 in0.0 mm
02:45 AM 93.3°F34.1°C 59.8°F15.4°C 33% Calm Calm 2.0 mph3.2 kmh 29.89 in1012.2 mb 0.00 in0.0 mm 0.00 in0.0 mm 0.00 in0.0 mm
02:40 AM 93.4°F34.1°C 59.9°F15.5°C 33% 2.0 mph NW3.2 kmh NW 4.0 mph6.4 kmh 29.89 in1012.2 mb 0.00 in0.0 mm 0.00 in0.0 mm 0.00 in0.0 mm
02:35 AM 93.4°F34.1°C 59.9°F15.5°C 33% 3.0 mph NW4.8 kmh NW -- 29.89 in1012.2 mb 0.00 in0.0 mm 0.00 in0.0 mm 0.00 in0.0 mm
02:30 AM 93.1°F33.9°C 60.5°F15.8°C 34% 3.0 mph NW4.8 kmh NW 5.0 mph8.0 kmh 29.89 in1012.2 mb 0.00 in0.0 mm 0.00 in0.0 mm 0.00 in0.0 mm
02:25 AM 92.8°F33.8°C 60.2°F15.7°C 34% 2.0 mph NW3.2 kmh NW 4.0 mph6.4 kmh 29.89 in1012.2 mb 0.00 in0.0 mm 0.00 in0.0 mm 0.00 in0.0 mm
02:20 AM 92.2°F33.4°C 61.3°F16.3°C 36% 3.0 mph WNW4.8 kmh WNW 3.0 mph4.8 kmh 29.89 in1012.2 mb 0.00 in0.0 mm 0.00 in0.0 mm 0.00 in0.0 mm
02:15 AM 92.0°F33.3°C 61.1°F16.2°C 36% Calm Calm 2.0 mph3.2 kmh 29.89 in1012.2 mb 0.00 in0.0 mm 0.00 in0.0 mm 0.00 in0.0 mm
02:10 AM 92.0°F33.3°C 61.1°F16.2°C 36% Calm Calm 2.0 mph3.2 kmh 29.89 in1012.2 mb 0.00 in0.0 mm 0.00 in0.0 mm 0.00 in0.0 mm
02:05 AM 92.0°F33.3°C 61.1°F16.2°C 36% 2.0 mph WNW3.2 kmh WNW 3.0 mph4.8 kmh 29.89 in1012.2 mb 0.00 in0.0 mm 0.00 in0.0 mm 0.00 in0.0 mm
02:00 AM 91.8°F33.2°C 60.9°F16.1°C 36% Calm Calm 2.0 mph3.2 kmh 29.89 in1012.2 mb 0.00 in0.0 mm 0.00 in0.0 mm 0.00 in0.0 mm
01:55 AM 91.9°F33.3°C 61.0°F16.1°C 36% Calm Calm -- 29.89 in1012.2 mb 0.00 in0.0 mm 0.00 in0.0 mm 0.00 in0.0 mm
01:50 AM 92.1°F33.4°C 61.2°F16.2°C 36% Calm Calm -- 29.89 in1012.2 mb 0.00 in0.0 mm 0.00 in0.0 mm 0.00 in0.0 mm
01:45 AM 92.6°F33.7°C 60.8°F16.0°C 35% Calm Calm -- 29.89 in1012.2 mb 0.00 in0.0 mm 0.00 in0.0 mm 0.00 in0.0 mm
01:40 AM 93.2°F34.0°C 61.4°F16.3°C 35% Calm Calm 1.0 mph1.6 kmh 29.89 in1012.2 mb 0.00 in0.0 mm 0.00 in0.0 mm 0.00 in0.0 mm
01:35 AM 93.4°F34.1°C 61.5°F16.4°C 35% Calm Calm 3.0 mph4.8 kmh 29.89 in1012.2 mb 0.00 in0.0 mm 0.00 in0.0 mm 0.00 in0.0 mm
01:30 AM 93.2°F34.0°C 61.4°F16.3°C 35% 2.0 mph WNW3.2 kmh WNW 3.0 mph4.8 kmh 29.89 in1012.2 mb 0.00 in0.0 mm 0.00 in0.0 mm 0.00 in0.0 mm
01:25 AM 93.1°F33.9°C 61.3°F16.3°C 35% Calm Calm 2.0 mph3.2 kmh 29.89 in1012.2 mb 0.00 in0.0 mm 0.00 in0.0 mm 0.00 in0.0 mm
01:20 AM 93.3°F34.1°C 61.5°F16.4°C 35% 2.0 mph WNW3.2 kmh WNW 3.0 mph4.8 kmh 29.88 in1011.9 mb 0.00 in0.0 mm 0.00 in0.0 mm 0.00 in0.0 mm
01:15 AM 92.4°F33.6°C 61.5°F16.4°C 36% 3.0 mph W4.8 kmh W 10.0 mph16.1 kmh 29.88 in1011.9 mb 0.00 in0.0 mm 0.00 in0.0 mm 0.00 in0.0 mm
01:10 AM 92.1°F33.4°C 61.2°F16.2°C 36% 2.0 mph SW3.2 kmh SW 1.0 mph1.6 kmh 29.88 in1011.9 mb 0.00 in0.0 mm 0.00 in0.0 mm 0.00 in0.0 mm
01:05 AM 92.0°F33.3°C 61.1°F16.2°C 36% Calm Calm 1.0 mph1.6 kmh 29.88 in1011.9 mb 0.00 in0.0 mm 0.00 in0.0 mm 0.00 in0.0 mm
01:00 AM 92.4°F33.6°C 61.5°F16.4°C 36% Calm Calm -- 29.88 in1011.9 mb 0.00 in0.0 mm 0.00 in0.0 mm 0.00 in0.0 mm
12:55 AM 92.7°F33.7°C 60.9°F16.1°C 35% Calm Calm -- 29.88 in1011.9 mb 0.00 in0.0 mm 0.00 in0.0 mm 0.00 in0.0 mm
12:50 AM 92.6°F33.7°C 60.8°F16.0°C 35% Calm Calm 1.0 mph1.6 kmh 29.88 in1011.9 mb 0.00 in0.0 mm 0.00 in0.0 mm 0.00 in0.0 mm
12:45 AM 92.9°F33.8°C 61.1°F16.2°C 35% 1.0 mph SW1.6 kmh SW 1.0 mph1.6 kmh 29.88 in1011.9 mb 0.00 in0.0 mm 0.00 in0.0 mm 0.00 in0.0 mm
12:40 AM 93.3°F34.1°C 60.6°F15.9°C 34% Calm Calm -- 29.88 in1011.9 mb 0.00 in0.0 mm 0.00 in0.0 mm 0.00 in0.0 mm
12:35 AM 93.3°F34.1°C 60.6°F15.9°C 34% Calm Calm 1.0 mph1.6 kmh 29.88 in1011.9 mb 0.00 in0.0 mm 0.00 in0.0 mm 0.00 in0.0 mm
12:30 AM 93.4°F34.1°C 60.7°F15.9°C 34% Calm Calm 1.0 mph1.6 kmh 29.88 in1011.9 mb 0.00 in0.0 mm 0.00 in0.0 mm 0.00 in0.0 mm
12:25 AM 93.2°F34.0°C 60.6°F15.9°C 34% 1.0 mph SW1.6 kmh SW 2.0 mph3.2 kmh 29.88 in1011.9 mb 0.00 in0.0 mm 0.00 in0.0 mm 0.00 in0.0 mm
12:20 AM 93.1°F33.9°C 60.5°F15.8°C 34% Calm Calm 2.0 mph3.2 kmh 29.87 in1011.5 mb 0.00 in0.0 mm 0.00 in0.0 mm 0.00 in0.0 mm
12:15 AM 93.0°F33.9°C 60.4°F15.8°C 34% 1.0 mph SW1.6 kmh SW 2.0 mph3.2 kmh 29.87 in1011.5 mb 0.00 in0.0 mm 0.00 in0.0 mm 0.00 in0.0 mm
12:10 AM 93.0°F33.9°C 60.4°F15.8°C 34% 1.0 mph SW1.6 kmh SW 2.0 mph3.2 kmh 29.87 in1011.5 mb 0.00 in0.0 mm 0.00 in0.0 mm 0.00 in0.0 mm
12:05 AM 93.0°F33.9°C 60.4°F15.8°C 34% Calm Calm -- 29.87 in1011.5 mb 0.00 in0.0 mm 0.00 in0.0 mm 0.00 in0.0 mm
12:00 AM 93.1°F33.9°C 60.5°F15.8°C 34% Calm Calm -- 29.87 in1011.5 mb 0.00 in0.0 mm 0.00 in0.0 mm 0.00 in0.0 mm